sensor_id;sensor_type;location;lat;lon;timestamp;P1;durP1;ratioP1;P2;durP2;ratioP2
22441;SDS011;11388;54.456;9.752;2022-12-07T00:02:04;7.70;;;6.80;;
22441;SDS011;11388;54.456;9.752;2022-12-07T00:04:30;7.28;;;6.25;;
22441;SDS011;11388;54.456;9.752;2022-12-07T00:06:55;7.15;;;6.10;;
22441;SDS011;11388;54.456;9.752;2022-12-07T00:09:21;7.15;;;6.03;;
22441;SDS011;11388;54.456;9.752;2022-12-07T00:11:48;7.40;;;6.25;;
22441;SDS011;11388;54.456;9.752;2022-12-07T00:14:15;8.93;;;7.03;;
22441;SDS011;11388;54.456;9.752;2022-12-07T00:16:41;7.00;;;5.82;;
22441;SDS011;11388;54.456;9.752;2022-12-07T00:19:19;11.98;;;9.95;;
22441;SDS011;11388;54.456;9.752;2022-12-07T00:21:48;8.55;;;7.07;;
22441;SDS011;11388;54.456;9.752;2022-12-07T00:24:13;6.60;;;5.30;;
22441;SDS011;11388;54.456;9.752;2022-12-07T00:26:39;7.13;;;5.90;;
22441;SDS011;11388;54.456;9.752;2022-12-07T00:29:07;6.40;;;5.60;;
22441;SDS011;11388;54.456;9.752;2022-12-07T00:31:40;7.00;;;5.30;;
22441;SDS011;11388;54.456;9.752;2022-12-07T00:34:06;6.28;;;5.28;;
22441;SDS011;11388;54.456;9.752;2022-12-07T00:36:36;5.60;;;4.40;;
22441;SDS011;11388;54.456;9.752;2022-12-07T00:39:02;6.13;;;4.35;;
22441;SDS011;11388;54.456;9.752;2022-12-07T00:41:28;6.30;;;5.15;;
22441;SDS011;11388;54.456;9.752;2022-12-07T00:43:54;5.93;;;4.63;;
22441;SDS011;11388;54.456;9.752;2022-12-07T00:46:20;8.35;;;4.60;;
22441;SDS011;11388;54.456;9.752;2022-12-07T00:48:47;6.03;;;4.57;;
22441;SDS011;11388;54.456;9.752;2022-12-07T00:51:14;5.88;;;4.22;;
22441;SDS011;11388;54.456;9.752;2022-12-07T00:53:56;5.60;;;4.32;;
22441;SDS011;11388;54.456;9.752;2022-12-07T00:56:26;6.18;;;4.35;;
22441;SDS011;11388;54.456;9.752;2022-12-07T01:01:19;4.95;;;3.85;;
22441;SDS011;11388;54.456;9.752;2022-12-07T01:06:17;4.65;;;3.80;;
22441;SDS011;11388;54.456;9.752;2022-12-07T01:08:44;5.45;;;3.88;;
22441;SDS011;11388;54.456;9.752;2022-12-07T01:11:12;6.25;;;4.10;;
22441;SDS011;11388;54.456;9.752;2022-12-07T01:13:42;5.00;;;4.00;;
22441;SDS011;11388;54.456;9.752;2022-12-07T01:16:09;5.90;;;4.43;;
22441;SDS011;11388;54.456;9.752;2022-12-07T01:18:38;5.28;;;4.05;;
22441;SDS011;11388;54.456;9.752;2022-12-07T01:21:05;4.78;;;3.75;;
22441;SDS011;11388;54.456;9.752;2022-12-07T01:23:32;6.85;;;4.25;;
22441;SDS011;11388;54.456;9.752;2022-12-07T01:26:00;4.93;;;3.42;;
22441;SDS011;11388;54.456;9.752;2022-12-07T01:28:27;5.20;;;4.15;;
22441;SDS011;11388;54.456;9.752;2022-12-07T01:31:13;5.07;;;3.75;;
22441;SDS011;11388;54.456;9.752;2022-12-07T01:33:40;5.40;;;4.35;;
22441;SDS011;11388;54.456;9.752;2022-12-07T01:36:18;7.50;;;4.65;;
22441;SDS011;11388;54.456;9.752;2022-12-07T01:38:46;6.88;;;4.63;;
22441;SDS011;11388;54.456;9.752;2022-12-07T01:41:14;5.82;;;4.70;;
22441;SDS011;11388;54.456;9.752;2022-12-07T01:46:50;7.75;;;5.10;;
22441;SDS011;11388;54.456;9.752;2022-12-07T01:52:19;7.30;;;5.45;;
22441;SDS011;11388;54.456;9.752;2022-12-07T01:55:03;11.27;;;7.57;;
22441;SDS011;11388;54.456;9.752;2022-12-07T01:57:33;10.25;;;7.95;;
22441;SDS011;11388;54.456;9.752;2022-12-07T02:00:01;8.68;;;7.50;;
22441;SDS011;11388;54.456;9.752;2022-12-07T02:02:30;9.63;;;7.53;;
22441;SDS011;11388;54.456;9.752;2022-12-07T02:04:59;9.52;;;7.25;;
22441;SDS011;11388;54.456;9.752;2022-12-07T02:07:26;9.73;;;7.15;;
22441;SDS011;11388;54.456;9.752;2022-12-07T02:09:52;8.80;;;7.30;;
22441;SDS011;11388;54.456;9.752;2022-12-07T02:12:21;9.73;;;7.13;;
22441;SDS011;11388;54.456;9.752;2022-12-07T02:14:48;9.65;;;6.97;;
22441;SDS011;11388;54.456;9.752;2022-12-07T02:17:27;8.18;;;6.43;;
22441;SDS011;11388;54.456;9.752;2022-12-07T02:20:13;8.50;;;7.07;;
22441;SDS011;11388;54.456;9.752;2022-12-07T02:30:54;8.25;;;6.15;;
22441;SDS011;11388;54.456;9.752;2022-12-07T02:33:24;8.18;;;6.50;;
22441;SDS011;11388;54.456;9.752;2022-12-07T02:35:59;8.35;;;6.35;;
22441;SDS011;11388;54.456;9.752;2022-12-07T02:38:48;8.60;;;6.22;;
22441;SDS011;11388;54.456;9.752;2022-12-07T02:41:41;7.70;;;6.40;;
22441;SDS011;11388;54.456;9.752;2022-12-07T02:44:12;7.35;;;5.55;;
22441;SDS011;11388;54.456;9.752;2022-12-07T02:46:47;8.18;;;6.03;;
22441;SDS011;11388;54.456;9.752;2022-12-07T02:49:18;9.95;;;6.75;;
22441;SDS011;11388;54.456;9.752;2022-12-07T02:51:46;7.97;;;5.70;;
22441;SDS011;11388;54.456;9.752;2022-12-07T02:54:21;7.47;;;6.10;;
22441;SDS011;11388;54.456;9.752;2022-12-07T02:56:52;6.43;;;5.43;;
22441;SDS011;11388;54.456;9.752;2022-12-07T03:07:54;6.97;;;5.43;;
22441;SDS011;11388;54.456;9.752;2022-12-07T03:16:33;6.88;;;5.47;;
22441;SDS011;11388;54.456;9.752;2022-12-07T03:19:07;6.95;;;5.55;;
22441;SDS011;11388;54.456;9.752;2022-12-07T03:21:40;7.65;;;5.00;;
22441;SDS011;11388;54.456;9.752;2022-12-07T03:24:15;6.70;;;4.95;;
22441;SDS011;11388;54.456;9.752;2022-12-07T03:26:50;6.18;;;5.20;;
22441;SDS011;11388;54.456;9.752;2022-12-07T03:29:27;7.35;;;5.68;;
22441;SDS011;11388;54.456;9.752;2022-12-07T03:35:21;6.93;;;5.22;;
22441;SDS011;11388;54.456;9.752;2022-12-07T03:37:53;6.75;;;5.50;;
22441;SDS011;11388;54.456;9.752;2022-12-07T03:41:23;6.82;;;5.40;;
22441;SDS011;11388;54.456;9.752;2022-12-07T03:43:44;7.45;;;5.38;;
22441;SDS011;11388;54.456;9.752;2022-12-07T03:51:45;8.63;;;5.50;;
22441;SDS011;11388;54.456;9.752;2022-12-07T03:54:36;6.57;;;5.18;;
22441;SDS011;11388;54.456;9.752;2022-12-07T03:57:09;7.18;;;5.53;;
22441;SDS011;11388;54.456;9.752;2022-12-07T03:59:37;8.27;;;5.72;;
22441;SDS011;11388;54.456;9.752;2022-12-07T04:02:05;6.50;;;5.05;;
22441;SDS011;11388;54.456;9.752;2022-12-07T04:04:31;6.57;;;5.28;;
22441;SDS011;11388;54.456;9.752;2022-12-07T04:06:58;8.02;;;5.80;;
22441;SDS011;11388;54.456;9.752;2022-12-07T04:09:24;7.20;;;5.55;;
22441;SDS011;11388;54.456;9.752;2022-12-07T04:11:50;6.97;;;5.75;;
22441;SDS011;11388;54.456;9.752;2022-12-07T04:14:16;7.75;;;5.70;;
22441;SDS011;11388;54.456;9.752;2022-12-07T04:16:45;7.55;;;5.80;;
22441;SDS011;11388;54.456;9.752;2022-12-07T04:19:11;6.95;;;5.75;;
22441;SDS011;11388;54.456;9.752;2022-12-07T04:21:37;7.50;;;5.63;;
22441;SDS011;11388;54.456;9.752;2022-12-07T04:24:03;7.43;;;5.80;;
22441;SDS011;11388;54.456;9.752;2022-12-07T04:26:29;8.48;;;6.07;;
22441;SDS011;11388;54.456;9.752;2022-12-07T04:28:55;8.00;;;5.70;;
22441;SDS011;11388;54.456;9.752;2022-12-07T04:31:20;7.45;;;5.65;;
22441;SDS011;11388;54.456;9.752;2022-12-07T04:33:46;7.43;;;5.25;;
22441;SDS011;11388;54.456;9.752;2022-12-07T04:36:14;7.03;;;5.45;;
22441;SDS011;11388;54.456;9.752;2022-12-07T04:38:40;7.75;;;5.60;;
22441;SDS011;11388;54.456;9.752;2022-12-07T04:41:06;7.65;;;5.70;;
22441;SDS011;11388;54.456;9.752;2022-12-07T04:43:34;7.22;;;5.75;;
22441;SDS011;11388;54.456;9.752;2022-12-07T04:46:00;7.10;;;5.70;;
22441;SDS011;11388;54.456;9.752;2022-12-07T04:48:25;9.02;;;6.78;;
22441;SDS011;11388;54.456;9.752;2022-12-07T04:50:51;9.48;;;6.55;;
22441;SDS011;11388;54.456;9.752;2022-12-07T04:53:17;8.15;;;5.80;;
22441;SDS011;11388;54.456;9.752;2022-12-07T04:55:43;8.60;;;5.82;;
22441;SDS011;11388;54.456;9.752;2022-12-07T04:58:10;7.57;;;5.38;;
22441;SDS011;11388;54.456;9.752;2022-12-07T05:00:36;6.68;;;5.50;;
22441;SDS011;11388;54.456;9.752;2022-12-07T05:05:51;7.25;;;5.57;;
22441;SDS011;11388;54.456;9.752;2022-12-07T05:08:17;7.38;;;5.20;;
22441;SDS011;11388;54.456;9.752;2022-12-07T05:10:43;6.85;;;5.40;;
22441;SDS011;11388;54.456;9.752;2022-12-07T05:13:23;10.40;;;5.85;;
22441;SDS011;11388;54.456;9.752;2022-12-07T06:42:21;7.03;;;4.20;;
22441;SDS011;11388;54.456;9.752;2022-12-07T06:44:57;7.47;;;4.00;;
22441;SDS011;11388;54.456;9.752;2022-12-07T06:47:34;6.70;;;3.60;;
22441;SDS011;11388;54.456;9.752;2022-12-07T07:03:39;4.90;;;3.25;;
22441;SDS011;11388;54.456;9.752;2022-12-07T07:06:32;6.82;;;3.47;;
22441;SDS011;11388;54.456;9.752;2022-12-07T07:09:23;5.78;;;3.17;;
22441;SDS011;11388;54.456;9.752;2022-12-07T07:12:07;5.82;;;3.40;;
22441;SDS011;11388;54.456;9.752;2022-12-07T07:14:44;7.55;;;3.13;;
22441;SDS011;11388;54.456;9.752;2022-12-07T07:21:13;7.82;;;3.08;;
22441;SDS011;11388;54.456;9.752;2022-12-07T07:23:45;7.53;;;3.20;;
22441;SDS011;11388;54.456;9.752;2022-12-07T07:26:17;6.05;;;2.70;;
22441;SDS011;11388;54.456;9.752;2022-12-07T07:34:54;5.18;;;2.90;;
22441;SDS011;11388;54.456;9.752;2022-12-07T07:37:50;6.20;;;3.00;;
22441;SDS011;11388;54.456;9.752;2022-12-07T07:44:07;5.13;;;2.65;;
22441;SDS011;11388;54.456;9.752;2022-12-07T07:49:57;4.20;;;2.50;;
22441;SDS011;11388;54.456;9.752;2022-12-07T07:56:10;5.57;;;2.88;;
22441;SDS011;11388;54.456;9.752;2022-12-07T08:08:46;9.07;;;3.78;;
22441;SDS011;11388;54.456;9.752;2022-12-07T08:11:19;7.03;;;3.67;;
22441;SDS011;11388;54.456;9.752;2022-12-07T08:23:57;4.00;;;1.65;;
22441;SDS011;11388;54.456;9.752;2022-12-07T08:29:57;4.43;;;1.40;;
22441;SDS011;11388;54.456;9.752;2022-12-07T08:32:26;9.35;;;3.83;;
22441;SDS011;11388;54.456;9.752;2022-12-07T08:35:04;37.95;;;22.73;;
22441;SDS011;11388;54.456;9.752;2022-12-07T08:37:39;32.22;;;19.65;;
22441;SDS011;11388;54.456;9.752;2022-12-07T08:40:15;32.38;;;18.30;;
22441;SDS011;11388;54.456;9.752;2022-12-07T08:48:56;16.50;;;9.00;;
22441;SDS011;11388;54.456;9.752;2022-12-07T08:51:28;10.00;;;4.72;;
22441;SDS011;11388;54.456;9.752;2022-12-07T08:53:57;4.57;;;1.58;;
22441;SDS011;11388;54.456;9.752;2022-12-07T08:56:40;6.78;;;2.75;;
22441;SDS011;11388;54.456;9.752;2022-12-07T08:59:30;4.90;;;1.20;;
22441;SDS011;11388;54.456;9.752;2022-12-07T09:02:24;2.92;;;0.95;;
22441;SDS011;11388;54.456;9.752;2022-12-07T09:05:04;5.60;;;1.50;;
22441;SDS011;11388;54.456;9.752;2022-12-07T09:10:50;4.50;;;0.93;;
22441;SDS011;11388;54.456;9.752;2022-12-07T09:13:35;4.63;;;1.48;;
22441;SDS011;11388;54.456;9.752;2022-12-07T09:16:17;6.13;;;1.90;;
22441;SDS011;11388;54.456;9.752;2022-12-07T09:19:11;4.78;;;1.60;;
22441;SDS011;11388;54.456;9.752;2022-12-07T09:21:48;5.78;;;1.33;;
22441;SDS011;11388;54.456;9.752;2022-12-07T09:24:31;3.17;;;1.05;;
22441;SDS011;11388;54.456;9.752;2022-12-07T09:27:24;3.67;;;1.23;;
22441;SDS011;11388;54.456;9.752;2022-12-07T09:29:53;4.18;;;1.30;;
22441;SDS011;11388;54.456;9.752;2022-12-07T09:32:38;4.75;;;1.15;;
22441;SDS011;11388;54.456;9.752;2022-12-07T09:35:20;4.70;;;1.13;;
22441;SDS011;11388;54.456;9.752;2022-12-07T09:37:59;2.95;;;0.88;;
22441;SDS011;11388;54.456;9.752;2022-12-07T09:40:37;5.88;;;2.63;;
22441;SDS011;11388;54.456;9.752;2022-12-07T09:43:17;6.38;;;3.38;;
22441;SDS011;11388;54.456;9.752;2022-12-07T09:45:48;5.38;;;0.98;;
22441;SDS011;11388;54.456;9.752;2022-12-07T09:48:34;3.40;;;1.30;;
22441;SDS011;11388;54.456;9.752;2022-12-07T09:51:20;3.88;;;1.10;;
22441;SDS011;11388;54.456;9.752;2022-12-07T09:56:42;2.88;;;0.85;;
22441;SDS011;11388;54.456;9.752;2022-12-07T09:59:16;4.28;;;1.10;;
22441;SDS011;11388;54.456;9.752;2022-12-07T10:02:04;3.22;;;1.15;;
22441;SDS011;11388;54.456;9.752;2022-12-07T10:08:17;4.68;;;1.10;;
22441;SDS011;11388;54.456;9.752;2022-12-07T10:10:51;5.40;;;1.25;;
22441;SDS011;11388;54.456;9.752;2022-12-07T10:24:36;4.82;;;0.80;;
22441;SDS011;11388;54.456;9.752;2022-12-07T10:30:52;4.35;;;0.63;;
22441;SDS011;11388;54.456;9.752;2022-12-07T10:46:50;2.03;;;0.40;;
22441;SDS011;11388;54.456;9.752;2022-12-07T10:55:16;3.42;;;1.08;;
22441;SDS011;11388;54.456;9.752;2022-12-07T11:05:39;2.55;;;0.45;;
22441;SDS011;11388;54.456;9.752;2022-12-07T11:11:24;1.55;;;0.40;;
22441;SDS011;11388;54.456;9.752;2022-12-07T11:24:10;1.33;;;0.50;;
22441;SDS011;11388;54.456;9.752;2022-12-07T11:29:48;2.35;;;0.60;;
22441;SDS011;11388;54.456;9.752;2022-12-07T11:35:47;2.17;;;0.95;;
22441;SDS011;11388;54.456;9.752;2022-12-07T11:38:24;3.33;;;1.10;;
22441;SDS011;11388;54.456;9.752;2022-12-07T11:40:59;3.30;;;0.77;;
22441;SDS011;11388;54.456;9.752;2022-12-07T11:43:37;3.55;;;1.10;;
22441;SDS011;11388;54.456;9.752;2022-12-07T11:46:12;2.22;;;0.70;;
22441;SDS011;11388;54.456;9.752;2022-12-07T11:48:44;3.28;;;0.70;;
22441;SDS011;11388;54.456;9.752;2022-12-07T11:51:24;3.95;;;0.68;;
22441;SDS011;11388;54.456;9.752;2022-12-07T11:53:54;3.50;;;1.08;;
22441;SDS011;11388;54.456;9.752;2022-12-07T11:56:28;4.53;;;0.77;;
22441;SDS011;11388;54.456;9.752;2022-12-07T12:01:57;3.95;;;1.38;;
22441;SDS011;11388;54.456;9.752;2022-12-07T12:04:51;2.47;;;0.60;;
22441;SDS011;11388;54.456;9.752;2022-12-07T12:07:27;2.50;;;0.80;;
22441;SDS011;11388;54.456;9.752;2022-12-07T12:10:00;3.20;;;1.50;;
22441;SDS011;11388;54.456;9.752;2022-12-07T12:25:53;2.80;;;1.00;;
22441;SDS011;11388;54.456;9.752;2022-12-07T12:33:34;8.10;;;4.70;;
22441;SDS011;11388;54.456;9.752;2022-12-07T12:45:02;2.53;;;1.10;;
22441;SDS011;11388;54.456;9.752;2022-12-07T12:47:40;1.35;;;0.55;;
22441;SDS011;11388;54.456;9.752;2022-12-07T12:50:28;1.38;;;0.50;;
22441;SDS011;11388;54.456;9.752;2022-12-07T12:53:19;1.95;;;0.50;;
22441;SDS011;11388;54.456;9.752;2022-12-07T12:58:35;1.35;;;0.47;;
22441;SDS011;11388;54.456;9.752;2022-12-07T13:07:08;1.40;;;0.47;;
22441;SDS011;11388;54.456;9.752;2022-12-07T13:09:37;3.60;;;0.60;;
22441;SDS011;11388;54.456;9.752;2022-12-07T13:12:13;1.33;;;0.40;;
22441;SDS011;11388;54.456;9.752;2022-12-07T13:19:56;1.23;;;0.40;;
22441;SDS011;11388;54.456;9.752;2022-12-07T13:27:28;1.73;;;0.70;;
22441;SDS011;11388;54.456;9.752;2022-12-07T13:29:56;1.50;;;0.60;;
22441;SDS011;11388;54.456;9.752;2022-12-07T13:32:26;1.98;;;0.60;;
22441;SDS011;11388;54.456;9.752;2022-12-07T13:34:53;2.60;;;0.77;;
22441;SDS011;11388;54.456;9.752;2022-12-07T13:39:52;1.70;;;0.60;;
22441;SDS011;11388;54.456;9.752;2022-12-07T13:44:58;1.35;;;0.50;;
22441;SDS011;11388;54.456;9.752;2022-12-07T13:47:31;3.78;;;0.82;;
22441;SDS011;11388;54.456;9.752;2022-12-07T13:50:23;1.95;;;0.45;;
22441;SDS011;11388;54.456;9.752;2022-12-07T13:52:58;3.88;;;0.50;;
22441;SDS011;11388;54.456;9.752;2022-12-07T13:55:25;1.15;;;0.55;;
22441;SDS011;11388;54.456;9.752;2022-12-07T13:57:52;2.55;;;0.70;;
22441;SDS011;11388;54.456;9.752;2022-12-07T14:00:23;1.67;;;0.43;;
22441;SDS011;11388;54.456;9.752;2022-12-07T14:02:58;5.32;;;2.83;;
22441;SDS011;11388;54.456;9.752;2022-12-07T14:05:26;4.18;;;2.20;;
22441;SDS011;11388;54.456;9.752;2022-12-07T14:08:01;2.72;;;1.30;;
22441;SDS011;11388;54.456;9.752;2022-12-07T14:16:03;6.03;;;3.47;;
22441;SDS011;11388;54.456;9.752;2022-12-07T14:18:42;5.80;;;2.47;;
22441;SDS011;11388;54.456;9.752;2022-12-07T14:21:18;4.20;;;1.98;;
22441;SDS011;11388;54.456;9.752;2022-12-07T14:26:43;5.20;;;3.17;;
22441;SDS011;11388;54.456;9.752;2022-12-07T14:31:53;3.45;;;1.60;;
22441;SDS011;11388;54.456;9.752;2022-12-07T14:34:20;3.70;;;1.80;;
22441;SDS011;11388;54.456;9.752;2022-12-07T14:36:47;4.18;;;1.48;;
22441;SDS011;11388;54.456;9.752;2022-12-07T14:39:12;2.38;;;0.80;;
22441;SDS011;11388;54.456;9.752;2022-12-07T14:41:38;3.13;;;1.52;;
22441;SDS011;11388;54.456;9.752;2022-12-07T14:44:16;1.60;;;1.00;;
22441;SDS011;11388;54.456;9.752;2022-12-07T14:46:43;3.00;;;1.20;;
22441;SDS011;11388;54.456;9.752;2022-12-07T14:49:08;2.47;;;1.17;;
22441;SDS011;11388;54.456;9.752;2022-12-07T14:51:35;4.53;;;1.67;;
22441;SDS011;11388;54.456;9.752;2022-12-07T14:54:04;2.85;;;0.77;;
22441;SDS011;11388;54.456;9.752;2022-12-07T14:56:31;2.88;;;0.90;;
22441;SDS011;11388;54.456;9.752;2022-12-07T14:58:57;2.80;;;1.15;;
22441;SDS011;11388;54.456;9.752;2022-12-07T15:01:22;1.77;;;0.90;;
22441;SDS011;11388;54.456;9.752;2022-12-07T15:03:48;3.35;;;2.00;;
22441;SDS011;11388;54.456;9.752;2022-12-07T15:06:15;1.17;;;0.70;;
22441;SDS011;11388;54.456;9.752;2022-12-07T15:08:42;1.80;;;0.60;;
22441;SDS011;11388;54.456;9.752;2022-12-07T15:11:12;3.15;;;0.60;;
22441;SDS011;11388;54.456;9.752;2022-12-07T15:13:39;2.33;;;0.75;;
22441;SDS011;11388;54.456;9.752;2022-12-07T15:16:23;2.50;;;0.60;;
22441;SDS011;11388;54.456;9.752;2022-12-07T15:18:49;1.60;;;0.50;;
22441;SDS011;11388;54.456;9.752;2022-12-07T15:21:16;1.27;;;0.60;;
22441;SDS011;11388;54.456;9.752;2022-12-07T15:23:43;1.50;;;0.80;;
22441;SDS011;11388;54.456;9.752;2022-12-07T15:26:11;2.45;;;0.57;;
22441;SDS011;11388;54.456;9.752;2022-12-07T15:28:36;3.67;;;0.70;;
22441;SDS011;11388;54.456;9.752;2022-12-07T15:31:02;1.17;;;0.70;;
22441;SDS011;11388;54.456;9.752;2022-12-07T15:33:35;3.30;;;0.70;;
22441;SDS011;11388;54.456;9.752;2022-12-07T15:36:01;1.90;;;0.80;;
22441;SDS011;11388;54.456;9.752;2022-12-07T15:38:26;1.83;;;0.70;;
22441;SDS011;11388;54.456;9.752;2022-12-07T15:41:01;2.42;;;0.77;;
22441;SDS011;11388;54.456;9.752;2022-12-07T15:43:27;3.38;;;0.80;;
22441;SDS011;11388;54.456;9.752;2022-12-07T15:46:11;2.33;;;0.55;;
22441;SDS011;11388;54.456;9.752;2022-12-07T15:48:37;1.23;;;0.60;;
22441;SDS011;11388;54.456;9.752;2022-12-07T15:51:05;2.17;;;0.60;;
22441;SDS011;11388;54.456;9.752;2022-12-07T15:53:35;1.83;;;0.80;;
22441;SDS011;11388;54.456;9.752;2022-12-07T15:56:05;1.42;;;0.60;;
22441;SDS011;11388;54.456;9.752;2022-12-07T15:58:32;1.80;;;0.68;;
22441;SDS011;11388;54.456;9.752;2022-12-07T16:00:57;1.98;;;0.95;;
22441;SDS011;11388;54.456;9.752;2022-12-07T16:03:23;2.38;;;1.13;;
22441;SDS011;11388;54.456;9.752;2022-12-07T16:05:49;2.28;;;1.00;;
22441;SDS011;11388;54.456;9.752;2022-12-07T16:08:16;2.25;;;0.50;;
22441;SDS011;11388;54.456;9.752;2022-12-07T16:10:41;1.95;;;0.60;;
22441;SDS011;11388;54.456;9.752;2022-12-07T16:13:08;1.38;;;0.50;;
22441;SDS011;11388;54.456;9.752;2022-12-07T16:15:38;1.60;;;0.60;;
22441;SDS011;11388;54.456;9.752;2022-12-07T16:18:05;4.15;;;0.75;;
22441;SDS011;11388;54.456;9.752;2022-12-07T16:20:31;1.38;;;0.52;;
22441;SDS011;11388;54.456;9.752;2022-12-07T16:22:57;1.95;;;0.68;;
22441;SDS011;11388;54.456;9.752;2022-12-07T16:25:23;2.08;;;0.47;;
22441;SDS011;11388;54.456;9.752;2022-12-07T16:28:07;3.85;;;1.05;;
22441;SDS011;11388;54.456;9.752;2022-12-07T16:30:35;6.45;;;3.67;;
22441;SDS011;11388;54.456;9.752;2022-12-07T16:33:01;4.78;;;2.97;;
22441;SDS011;11388;54.456;9.752;2022-12-07T16:35:27;4.13;;;2.63;;
22441;SDS011;11388;54.456;9.752;2022-12-07T16:37:55;8.40;;;5.93;;
22441;SDS011;11388;54.456;9.752;2022-12-07T16:40:21;6.60;;;4.82;;
22441;SDS011;11388;54.456;9.752;2022-12-07T16:42:46;15.38;;;12.82;;
22441;SDS011;11388;54.456;9.752;2022-12-07T16:45:12;5.22;;;3.88;;
22441;SDS011;11388;54.456;9.752;2022-12-07T16:47:38;6.22;;;4.70;;
22441;SDS011;11388;54.456;9.752;2022-12-07T16:50:05;11.40;;;8.32;;
22441;SDS011;11388;54.456;9.752;2022-12-07T16:52:32;8.95;;;6.75;;
22441;SDS011;11388;54.456;9.752;2022-12-07T16:54:58;6.22;;;4.25;;
22441;SDS011;11388;54.456;9.752;2022-12-07T16:57:24;3.80;;;2.20;;
22441;SDS011;11388;54.456;9.752;2022-12-07T16:59:50;3.03;;;2.08;;
22441;SDS011;11388;54.456;9.752;2022-12-07T17:02:17;4.07;;;2.20;;
22441;SDS011;11388;54.456;9.752;2022-12-07T17:04:43;3.17;;;1.60;;
22441;SDS011;11388;54.456;9.752;2022-12-07T17:07:08;3.42;;;1.50;;
22441;SDS011;11388;54.456;9.752;2022-12-07T17:09:35;3.70;;;1.65;;
22441;SDS011;11388;54.456;9.752;2022-12-07T17:12:01;2.55;;;1.60;;
22441;SDS011;11388;54.456;9.752;2022-12-07T17:14:27;23.02;;;17.75;;
22441;SDS011;11388;54.456;9.752;2022-12-07T17:17:11;4.20;;;2.70;;
22441;SDS011;11388;54.456;9.752;2022-12-07T17:19:41;4.45;;;2.65;;
22441;SDS011;11388;54.456;9.752;2022-12-07T17:22:07;2.97;;;1.70;;
22441;SDS011;11388;54.456;9.752;2022-12-07T17:24:33;3.30;;;1.30;;
22441;SDS011;11388;54.456;9.752;2022-12-07T17:26:59;2.90;;;1.30;;
22441;SDS011;11388;54.456;9.752;2022-12-07T17:29:24;3.15;;;1.30;;
22441;SDS011;11388;54.456;9.752;2022-12-07T17:31:50;1.70;;;1.10;;
22441;SDS011;11388;54.456;9.752;2022-12-07T17:34:16;2.60;;;1.20;;
22441;SDS011;11388;54.456;9.752;2022-12-07T17:36:42;2.80;;;1.20;;
22441;SDS011;11388;54.456;9.752;2022-12-07T17:39:11;2.85;;;1.00;;
22441;SDS011;11388;54.456;9.752;2022-12-07T17:41:42;2.38;;;1.10;;
22441;SDS011;11388;54.456;9.752;2022-12-07T17:44:29;2.28;;;1.23;;
22441;SDS011;11388;54.456;9.752;2022-12-07T17:47:02;2.47;;;1.52;;
22441;SDS011;11388;54.456;9.752;2022-12-07T17:49:30;3.10;;;1.40;;
22441;SDS011;11388;54.456;9.752;2022-12-07T17:51:55;14.35;;;10.85;;
22441;SDS011;11388;54.456;9.752;2022-12-07T17:54:40;20.70;;;15.73;;
22441;SDS011;11388;54.456;9.752;2022-12-07T17:57:06;4.10;;;2.60;;
22441;SDS011;11388;54.456;9.752;2022-12-07T17:59:31;10.80;;;7.32;;
22441;SDS011;11388;54.456;9.752;2022-12-07T18:01:57;8.55;;;6.30;;
22441;SDS011;11388;54.456;9.752;2022-12-07T18:04:23;6.18;;;5.00;;
22441;SDS011;11388;54.456;9.752;2022-12-07T18:06:49;3.33;;;1.70;;
22441;SDS011;11388;54.456;9.752;2022-12-07T18:09:14;3.00;;;1.05;;
22441;SDS011;11388;54.456;9.752;2022-12-07T18:11:40;2.80;;;1.20;;
22441;SDS011;11388;54.456;9.752;2022-12-07T18:14:06;2.47;;;1.10;;
22441;SDS011;11388;54.456;9.752;2022-12-07T18:16:32;2.45;;;0.95;;
22441;SDS011;11388;54.456;9.752;2022-12-07T18:19:01;1.80;;;0.90;;
22441;SDS011;11388;54.456;9.752;2022-12-07T18:21:28;3.53;;;1.10;;
22441;SDS011;11388;54.456;9.752;2022-12-07T18:23:56;5.20;;;1.95;;
22441;SDS011;11388;54.456;9.752;2022-12-07T18:26:25;2.63;;;1.02;;
22441;SDS011;11388;54.456;9.752;2022-12-07T18:28:51;2.00;;;1.00;;
22441;SDS011;11388;54.456;9.752;2022-12-07T18:31:17;2.22;;;1.30;;
22441;SDS011;11388;54.456;9.752;2022-12-07T18:33:44;4.47;;;1.30;;
22441;SDS011;11388;54.456;9.752;2022-12-07T18:36:12;3.40;;;1.20;;
22441;SDS011;11388;54.456;9.752;2022-12-07T18:38:39;3.15;;;0.95;;
22441;SDS011;11388;54.456;9.752;2022-12-07T18:41:12;3.08;;;1.05;;
22441;SDS011;11388;54.456;9.752;2022-12-07T18:43:38;3.40;;;2.20;;
22441;SDS011;11388;54.456;9.752;2022-12-07T18:46:18;1.50;;;1.02;;
22441;SDS011;11388;54.456;9.752;2022-12-07T18:48:44;2.17;;;1.30;;
22441;SDS011;11388;54.456;9.752;2022-12-07T18:51:11;4.05;;;2.55;;
22441;SDS011;11388;54.456;9.752;2022-12-07T18:53:38;17.70;;;12.00;;
22441;SDS011;11388;54.456;9.752;2022-12-07T18:56:05;20.73;;;14.73;;
22441;SDS011;11388;54.456;9.752;2022-12-07T18:58:31;12.88;;;7.50;;
22441;SDS011;11388;54.456;9.752;2022-12-07T19:00:57;10.50;;;6.80;;
22441;SDS011;11388;54.456;9.752;2022-12-07T19:03:23;11.73;;;7.75;;
22441;SDS011;11388;54.456;9.752;2022-12-07T19:05:49;14.48;;;9.45;;
22441;SDS011;11388;54.456;9.752;2022-12-07T19:08:15;17.00;;;9.90;;
22441;SDS011;11388;54.456;9.752;2022-12-07T19:10:41;15.30;;;9.43;;
22441;SDS011;11388;54.456;9.752;2022-12-07T19:13:06;11.23;;;6.68;;
22441;SDS011;11388;54.456;9.752;2022-12-07T19:15:32;12.23;;;7.70;;
22441;SDS011;11388;54.456;9.752;2022-12-07T19:17:58;12.02;;;6.22;;
22441;SDS011;11388;54.456;9.752;2022-12-07T19:20:23;6.97;;;3.78;;
22441;SDS011;11388;54.456;9.752;2022-12-07T19:22:49;9.85;;;3.70;;
22441;SDS011;11388;54.456;9.752;2022-12-07T19:25:15;3.95;;;2.70;;
22441;SDS011;11388;54.456;9.752;2022-12-07T19:27:41;4.28;;;2.30;;
22441;SDS011;11388;54.456;9.752;2022-12-07T19:30:06;3.95;;;2.13;;
22441;SDS011;11388;54.456;9.752;2022-12-07T19:32:34;4.47;;;2.38;;
22441;SDS011;11388;54.456;9.752;2022-12-07T19:35:03;3.08;;;1.95;;
22441;SDS011;11388;54.456;9.752;2022-12-07T19:37:29;2.95;;;1.80;;
22441;SDS011;11388;54.456;9.752;2022-12-07T19:39:55;4.00;;;2.00;;
22441;SDS011;11388;54.456;9.752;2022-12-07T19:42:21;3.80;;;1.60;;
22441;SDS011;11388;54.456;9.752;2022-12-07T19:44:47;3.40;;;1.45;;
22441;SDS011;11388;54.456;9.752;2022-12-07T19:47:14;3.67;;;1.70;;
22441;SDS011;11388;54.456;9.752;2022-12-07T19:49:41;3.70;;;1.75;;
22441;SDS011;11388;54.456;9.752;2022-12-07T19:52:09;3.22;;;1.80;;
22441;SDS011;11388;54.456;9.752;2022-12-07T19:54:37;3.08;;;1.73;;
22441;SDS011;11388;54.456;9.752;2022-12-07T19:57:04;4.65;;;1.70;;
22441;SDS011;11388;54.456;9.752;2022-12-07T19:59:31;2.72;;;1.90;;
22441;SDS011;11388;54.456;9.752;2022-12-07T20:01:58;3.75;;;1.90;;
22441;SDS011;11388;54.456;9.752;2022-12-07T20:04:25;2.50;;;1.50;;
22441;SDS011;11388;54.456;9.752;2022-12-07T20:06:56;3.50;;;1.55;;
22441;SDS011;11388;54.456;9.752;2022-12-07T20:09:23;2.97;;;1.70;;
22441;SDS011;11388;54.456;9.752;2022-12-07T20:11:49;4.82;;;1.80;;
22441;SDS011;11388;54.456;9.752;2022-12-07T20:14:34;4.03;;;2.10;;
22441;SDS011;11388;54.456;9.752;2022-12-07T20:17:00;3.05;;;1.83;;
22441;SDS011;11388;54.456;9.752;2022-12-07T20:19:29;4.78;;;2.78;;
22441;SDS011;11388;54.456;9.752;2022-12-07T20:21:55;4.78;;;2.60;;
22441;SDS011;11388;54.456;9.752;2022-12-07T20:24:21;4.15;;;2.67;;
22441;SDS011;11388;54.456;9.752;2022-12-07T20:26:50;5.13;;;2.60;;
22441;SDS011;11388;54.456;9.752;2022-12-07T20:29:18;4.88;;;2.08;;
22441;SDS011;11388;54.456;9.752;2022-12-07T20:31:45;4.90;;;3.05;;
22441;SDS011;11388;54.456;9.752;2022-12-07T20:34:12;4.80;;;3.25;;
22441;SDS011;11388;54.456;9.752;2022-12-07T20:36:39;7.30;;;4.60;;
22441;SDS011;11388;54.456;9.752;2022-12-07T20:39:05;8.02;;;5.40;;
22441;SDS011;11388;54.456;9.752;2022-12-07T20:41:32;7.50;;;4.88;;